Sakura — JG5711 — position and weather

sailwx.info

Track history (hours):
 
Tides and Currents Weather Stations Pressure Air Temp Water Temp Dewpoint Dewpoint Depression Visibility Wind Speed Wind Dir Waves Ship Positions

Sakura

Last reported at 2017-Feb-24 05:33 UTC. Time now 2017-Feb-24 06:07 UTC.
Position N 35°27' E 139°40'.

Length 32 m; draft 3.6 m.

Type: Tug. MMSI: 431101178.

Date/timePositionNaut miles runAvg speedWind from/ knotsBaromVisibWave heightAir tempDewpointWater temp
2017-Feb-24 05:33N 35°27' E 139°40'0 0.0
2017-Feb-24 04:33N 35°27' E 139°40'0 0.0
2017-Feb-24 03:33N 35°27' E 139°40'1 1.1
2017-Feb-24 02:34N 35°27' E 139°41'1 1.1
2017-Feb-24 01:33N 35°27' E 139°40'0 0.2
2017-Feb-24 00:34N 35°27' E 139°40'3 3.0
2017-Feb-23 23:34N 35°26' E 139°43'3 3.0
2017-Feb-23 22:33N 35°27' E 139°40'0 0.0
2017-Feb-23 21:34N 35°27' E 139°40'0 0.0
2017-Feb-23 20:33N 35°27' E 139°40'0 0.0
2017-Feb-23 07:15N 35°27' E 139°40'0 0.3
2017-Feb-23 06:33N 35°27' E 139°39'0 0.0
2017-Feb-23 05:33N 35°27' E 139°39'0 0.0
2017-Feb-23 04:33N 35°27' E 139°39'0 0.0
2017-Feb-23 03:33N 35°27' E 139°39'0 0.0
2017-Feb-23 02:33N 35°27' E 139°39'0 0.0
2017-Feb-23 01:33N 35°27' E 139°39'0 0.0
2017-Feb-23 00:33N 35°27' E 139°39'0 0.0
2017-Feb-22 23:33N 35°27' E 139°39'1 0.5
2017-Feb-22 22:34N 35°27' E 139°40'2 1.7
2017-Feb-22 21:34N 35°26' E 139°42'2 2.0
2017-Feb-22 20:33N 35°27' E 139°40'0 0.0
2017-Feb-22 07:10N 35°27' E 139°40'0 0.0
2017-Feb-22 06:34N 35°27' E 139°40'0 0.0
2017-Feb-22 05:34N 35°27' E 139°40'0 0.0
2017-Feb-22 04:34N 35°27' E 139°40'0 0.0
2017-Feb-22 03:34N 35°27' E 139°40'3 3.0
2017-Feb-22 02:34N 35°28' E 139°43'0 0.0
2017-Feb-22 01:34N 35°28' E 139°43'2 2.2
2017-Feb-22 00:34N 35°26' E 139°45'4 4.5
2017-Feb-21 23:34N 35°27' E 139°40'0 0.0
2017-Feb-21 22:34N 35°27' E 139°40'0 0.0
2017-Feb-21 00:14N 35°27' E 139°40'0 0.0
2017-Feb-20 23:34N 35°27' E 139°40'0 0.0
2017-Feb-20 22:34N 35°27' E 139°40'2 1.5
2017-Feb-20 21:34N 35°27' E 139°41'0 0.5
2017-Feb-20 20:33N 35°27' E 139°42'0 0.0
2017-Feb-20 19:33N 35°27' E 139°42'0 0.0
2017-Feb-20 18:33N 35°27' E 139°42'1 0.8
2017-Feb-20 17:34N 35°28' E 139°42'0 0.1
2017-Feb-20 16:34N 35°28' E 139°41'1 0.8
2017-Feb-20 15:34N 35°28' E 139°41'1 1.3
2017-Feb-20 14:33N 35°26' E 139°41'1 1.3
2017-Feb-20 13:34N 35°28' E 139°40'2 1.7
2017-Feb-20 12:33N 35°26' E 139°42'2 2.0
2017-Feb-20 11:33N 35°27' E 139°40'0 0.0
2017-Feb-20 10:33N 35°27' E 139°40'0 0.0
2017-Feb-20 09:33N 35°27' E 139°40'1 1.4
2017-Feb-20 08:33N 35°28' E 139°39'1 1.2
2017-Feb-20 07:33N 35°27' E 139°39'0 0.0
2017-Feb-20 06:33N 35°27' E 139°39'0 0.0
2017-Feb-20 05:33N 35°27' E 139°39'0 0.0
2017-Feb-20 04:33N 35°27' E 139°39'0 0.0
2017-Feb-20 03:33N 35°27' E 139°39'0 0.1
2017-Feb-20 02:34N 35°27' E 139°40'0 0.1
2017-Feb-20 01:33N 35°27' E 139°40'0 0.0
2017-Feb-20 00:33N 35°27' E 139°40'0 0.0
2017-Feb-19 23:33N 35°27' E 139°40'0 0.0
2017-Feb-19 22:33N 35°27' E 139°40'0 0.0
2017-Feb-19 21:33N 35°27' E 139°40'0 0.0
2017-Feb-19 07:19N 35°27' E 139°40'0 0.0
2017-Feb-19 06:33N 35°27' E 139°40'0 0.0
2017-Feb-19 05:33N 35°27' E 139°40'0 0.0
2017-Feb-19 04:34N 35°27' E 139°40'1 1.3
2017-Feb-19 03:33N 35°27' E 139°41'1 0.8
2017-Feb-19 02:34N 35°27' E 139°40'1 0.7
2017-Feb-19 01:33N 35°27' E 139°40'0 0.0
2017-Feb-19 00:33N 35°27' E 139°40'5 5.5
2017-Feb-18 23:34N 35°29' E 139°46'2 2.3
2017-Feb-18 22:33N 35°31' E 139°46'1 0.5
2017-Feb-18 21:33N 35°32' E 139°46'7 6.8
2017-Feb-18 20:33N 35°27' E 139°40'0 0.0
2017-Feb-18 19:33N 35°27' E 139°40'0 0.0
2017-Feb-18 18:34N 35°27' E 139°40'0 0.0
2017-Feb-18 17:34N 35°27' E 139°40'0 0.0
2017-Feb-18 16:34N 35°27' E 139°40'0 0.0
2017-Feb-18 15:34N 35°27' E 139°40'0 0.0
2017-Feb-18 14:34N 35°27' E 139°40'0 0.0
2017-Feb-18 13:34N 35°27' E 139°40'0 0.0
2017-Feb-18 12:34N 35°27' E 139°40'0 0.0
2017-Feb-18 11:34N 35°27' E 139°40'0 0.0
2017-Feb-18 10:34N 35°27' E 139°40'0 0.0
2017-Feb-18 09:34N 35°27' E 139°40'1 1.3
2017-Feb-18 08:33N 35°27' E 139°41'1 1.3
2017-Feb-18 07:33N 35°26' E 139°42'2 2.4
2017-Feb-18 06:33N 35°27' E 139°39'0 0.0
2017-Feb-18 05:33N 35°27' E 139°39'1 1.5
2017-Feb-18 04:33N 35°27' E 139°41'1 0.6
2017-Feb-18 03:33N 35°27' E 139°42'2 2.4
2017-Feb-18 02:34N 35°28' E 139°44'1 0.5
2017-Feb-18 01:33N 35°28' E 139°45'1 1.2
2017-Feb-18 00:33N 35°28' E 139°43'0 0.0
2017-Feb-17 23:33N 35°28' E 139°43'2 2.2
2017-Feb-17 22:33N 35°28' E 139°41'1 1.3
2017-Feb-17 21:33N 35°28' E 139°42'2 2.4
2017-Feb-17 20:33N 35°27' E 139°40'0 0.0
2017-Feb-17 19:33N 35°27' E 139°40'0 0.0
2017-Feb-17 07:11N 35°27' E 139°40'0 0.0
2017-Feb-17 06:33N 35°27' E 139°40'0 0.0
2017-Feb-17 05:33N 35°27' E 139°40'0 0.0
2017-Feb-17 04:33N 35°27' E 139°40'0 0.0
2017-Feb-17 03:33N 35°27' E 139°40'0 0.0
2017-Feb-17 02:33N 35°27' E 139°40'4 3.7
2017-Feb-17 01:33N 35°29' E 139°43'3 2.9
2017-Feb-17 00:33N 35°31' E 139°46'1 1.1
2017-Feb-16 23:33N 35°30' E 139°47'6 6.4
2017-Feb-16 22:34N 35°27' E 139°40'0 0.0
2017-Feb-16 07:10N 35°27' E 139°40'0 0.0
2017-Feb-16 06:33N 35°27' E 139°40'0 0.0
2017-Feb-16 05:33N 35°27' E 139°40'2 2.1
2017-Feb-16 04:33N 35°26' E 139°42'2 2.2
2017-Feb-16 03:33N 35°28' E 139°44'0 0.0
2017-Feb-16 02:33N 35°28' E 139°44'0 0.4
2017-Feb-16 01:33N 35°28' E 139°44'1 1.0
2017-Feb-16 00:33N 35°27' E 139°44'1 1.3
2017-Feb-15 23:33N 35°27' E 139°43'2 2.3
2017-Feb-15 22:33N 35°29' E 139°43'2 2.4
2017-Feb-15 21:33N 35°27' E 139°43'0 0.5
2017-Feb-15 20:33N 35°27' E 139°43'3 2.8
2017-Feb-15 19:33N 35°27' E 139°40'0 0.0
2017-Feb-15 07:28N 35°27' E 139°40'5 6.0
2017-Feb-15 06:33N 35°30' E 139°45'3 2.6
2017-Feb-15 05:33N 35°29' E 139°42'3 2.7
2017-Feb-15 04:34N 35°27' E 139°40'0 0.3
2017-Feb-15 03:33N 35°27' E 139°40'0 0.0
2017-Feb-15 02:33N 35°27' E 139°40'0 0.0
2017-Feb-15 01:33N 35°27' E 139°40'0 0.0
2017-Feb-15 00:33N 35°27' E 139°40'3 2.9
2017-Feb-14 23:33N 35°27' E 139°43'1 0.6
2017-Feb-14 22:33N 35°27' E 139°42'1 0.7
2017-Feb-14 21:33N 35°26' E 139°42'2 2.4
2017-Feb-14 20:33N 35°27' E 139°40'0 0.0
2017-Feb-14 07:33N 35°27' E 139°40'0 0.0
2017-Feb-14 06:33N 35°27' E 139°40'  
Track history (hours):
 
Tides and Currents Weather Stations Pressure Air Temp Water Temp Dewpoint Dewpoint Depression Visibility Wind Speed Wind Dir Waves Ship Positions

Sakura

Last reported at 2017-Feb-24 05:33 UTC. Time now 2017-Feb-24 06:07 UTC.
Position N 35°27' E 139°40'.

Length 32 m; draft 3.6 m.

Type: Tug. MMSI: 431101178.

Date/timePositionNaut miles runAvg speedWind from/ knotsBaromVisibWave heightAir tempDewpointWater temp
2017-Feb-24 05:33N 35°27' E 139°40'0 0.0
2017-Feb-24 04:33N 35°27' E 139°40'0 0.0
2017-Feb-24 03:33N 35°27' E 139°40'1 1.1
2017-Feb-24 02:34N 35°27' E 139°41'1 1.1
2017-Feb-24 01:33N 35°27' E 139°40'0 0.2
2017-Feb-24 00:34N 35°27' E 139°40'3 3.0
2017-Feb-23 23:34N 35°26' E 139°43'3 3.0
2017-Feb-23 22:33N 35°27' E 139°40'0 0.0
2017-Feb-23 21:34N 35°27' E 139°40'0 0.0
2017-Feb-23 20:33N 35°27' E 139°40'0 0.0
2017-Feb-23 07:15N 35°27' E 139°40'0 0.3
2017-Feb-23 06:33N 35°27' E 139°39'0 0.0
2017-Feb-23 05:33N 35°27' E 139°39'0 0.0
2017-Feb-23 04:33N 35°27' E 139°39'0 0.0
2017-Feb-23 03:33N 35°27' E 139°39'0 0.0
2017-Feb-23 02:33N 35°27' E 139°39'0 0.0
2017-Feb-23 01:33N 35°27' E 139°39'0 0.0
2017-Feb-23 00:33N 35°27' E 139°39'0 0.0
2017-Feb-22 23:33N 35°27' E 139°39'1 0.5
2017-Feb-22 22:34N 35°27' E 139°40'2 1.7
2017-Feb-22 21:34N 35°26' E 139°42'2 2.0
2017-Feb-22 20:33N 35°27' E 139°40'0 0.0
2017-Feb-22 07:10N 35°27' E 139°40'0 0.0
2017-Feb-22 06:34N 35°27' E 139°40'0 0.0
2017-Feb-22 05:34N 35°27' E 139°40'0 0.0
2017-Feb-22 04:34N 35°27' E 139°40'0 0.0
2017-Feb-22 03:34N 35°27' E 139°40'3 3.0
2017-Feb-22 02:34N 35°28' E 139°43'0 0.0
2017-Feb-22 01:34N 35°28' E 139°43'2 2.2
2017-Feb-22 00:34N 35°26' E 139°45'4 4.5
2017-Feb-21 23:34N 35°27' E 139°40'0 0.0
2017-Feb-21 22:34N 35°27' E 139°40'0 0.0
2017-Feb-21 00:14N 35°27' E 139°40'0 0.0
2017-Feb-20 23:34N 35°27' E 139°40'0 0.0
2017-Feb-20 22:34N 35°27' E 139°40'2 1.5
2017-Feb-20 21:34N 35°27' E 139°41'0 0.5
2017-Feb-20 20:33N 35°27' E 139°42'0 0.0
2017-Feb-20 19:33N 35°27' E 139°42'0 0.0
2017-Feb-20 18:33N 35°27' E 139°42'1 0.8
2017-Feb-20 17:34N 35°28' E 139°42'0 0.1
2017-Feb-20 16:34N 35°28' E 139°41'1 0.8
2017-Feb-20 15:34N 35°28' E 139°41'1 1.3
2017-Feb-20 14:33N 35°26' E 139°41'1 1.3
2017-Feb-20 13:34N 35°28' E 139°40'2 1.7
2017-Feb-20 12:33N 35°26' E 139°42'2 2.0
2017-Feb-20 11:33N 35°27' E 139°40'0 0.0
2017-Feb-20 10:33N 35°27' E 139°40'0 0.0
2017-Feb-20 09:33N 35°27' E 139°40'1 1.4
2017-Feb-20 08:33N 35°28' E 139°39'1 1.2
2017-Feb-20 07:33N 35°27' E 139°39'0 0.0
2017-Feb-20 06:33N 35°27' E 139°39'0 0.0
2017-Feb-20 05:33N 35°27' E 139°39'0 0.0
2017-Feb-20 04:33N 35°27' E 139°39'0 0.0
2017-Feb-20 03:33N 35°27' E 139°39'0 0.1
2017-Feb-20 02:34N 35°27' E 139°40'0 0.1
2017-Feb-20 01:33N 35°27' E 139°40'0 0.0
2017-Feb-20 00:33N 35°27' E 139°40'0 0.0
2017-Feb-19 23:33N 35°27' E 139°40'0 0.0
2017-Feb-19 22:33N 35°27' E 139°40'0 0.0
2017-Feb-19 21:33N 35°27' E 139°40'0 0.0
2017-Feb-19 07:19N 35°27' E 139°40'0 0.0
2017-Feb-19 06:33N 35°27' E 139°40'0 0.0
2017-Feb-19 05:33N 35°27' E 139°40'0 0.0
2017-Feb-19 04:34N 35°27' E 139°40'1 1.3
2017-Feb-19 03:33N 35°27' E 139°41'1 0.8
2017-Feb-19 02:34N 35°27' E 139°40'1 0.7
2017-Feb-19 01:33N 35°27' E 139°40'0 0.0
2017-Feb-19 00:33N 35°27' E 139°40'5 5.5
2017-Feb-18 23:34N 35°29' E 139°46'2 2.3
2017-Feb-18 22:33N 35°31' E 139°46'1 0.5
2017-Feb-18 21:33N 35°32' E 139°46'7 6.8
2017-Feb-18 20:33N 35°27' E 139°40'0 0.0
2017-Feb-18 19:33N 35°27' E 139°40'0 0.0
2017-Feb-18 18:34N 35°27' E 139°40'0 0.0
2017-Feb-18 17:34N 35°27' E 139°40'0 0.0
2017-Feb-18 16:34N 35°27' E 139°40'0 0.0
2017-Feb-18 15:34N 35°27' E 139°40'0 0.0
2017-Feb-18 14:34N 35°27' E 139°40'0 0.0
2017-Feb-18 13:34N 35°27' E 139°40'0 0.0
2017-Feb-18 12:34N 35°27' E 139°40'0 0.0
2017-Feb-18 11:34N 35°27' E 139°40'0 0.0
2017-Feb-18 10:34N 35°27' E 139°40'0 0.0
2017-Feb-18 09:34N 35°27' E 139°40'1 1.3
2017-Feb-18 08:33N 35°27' E 139°41'1 1.3
2017-Feb-18 07:33N 35°26' E 139°42'2 2.4
2017-Feb-18 06:33N 35°27' E 139°39'0 0.0
2017-Feb-18 05:33N 35°27' E 139°39'1 1.5
2017-Feb-18 04:33N 35°27' E 139°41'1 0.6
2017-Feb-18 03:33N 35°27' E 139°42'2 2.4
2017-Feb-18 02:34N 35°28' E 139°44'1 0.5
2017-Feb-18 01:33N 35°28' E 139°45'1 1.2
2017-Feb-18 00:33N 35°28' E 139°43'0 0.0
2017-Feb-17 23:33N 35°28' E 139°43'2 2.2
2017-Feb-17 22:33N 35°28' E 139°41'1 1.3
2017-Feb-17 21:33N 35°28' E 139°42'2 2.4
2017-Feb-17 20:33N 35°27' E 139°40'0 0.0
2017-Feb-17 19:33N 35°27' E 139°40'0 0.0
2017-Feb-17 07:11N 35°27' E 139°40'0 0.0
2017-Feb-17 06:33N 35°27' E 139°40'0 0.0
2017-Feb-17 05:33N 35°27' E 139°40'0 0.0
2017-Feb-17 04:33N 35°27' E 139°40'0 0.0
2017-Feb-17 03:33N 35°27' E 139°40'0 0.0
2017-Feb-17 02:33N 35°27' E 139°40'4 3.7
2017-Feb-17 01:33N 35°29' E 139°43'3 2.9
2017-Feb-17 00:33N 35°31' E 139°46'1 1.1
2017-Feb-16 23:33N 35°30' E 139°47'6 6.4
2017-Feb-16 22:34N 35°27' E 139°40'0 0.0
2017-Feb-16 07:10N 35°27' E 139°40'0 0.0
2017-Feb-16 06:33N 35°27' E 139°40'0 0.0
2017-Feb-16 05:33N 35°27' E 139°40'2 2.1
2017-Feb-16 04:33N 35°26' E 139°42'2 2.2
2017-Feb-16 03:33N 35°28' E 139°44'0 0.0
2017-Feb-16 02:33N 35°28' E 139°44'0 0.4
2017-Feb-16 01:33N 35°28' E 139°44'1 1.0
2017-Feb-16 00:33N 35°27' E 139°44'1 1.3
2017-Feb-15 23:33N 35°27' E 139°43'2 2.3
2017-Feb-15 22:33N 35°29' E 139°43'2 2.4
2017-Feb-15 21:33N 35°27' E 139°43'0 0.5
2017-Feb-15 20:33N 35°27' E 139°43'3 2.8
2017-Feb-15 19:33N 35°27' E 139°40'0 0.0
2017-Feb-15 07:28N 35°27' E 139°40'5 6.0
2017-Feb-15 06:33N 35°30' E 139°45'3 2.6
2017-Feb-15 05:33N 35°29' E 139°42'3 2.7
2017-Feb-15 04:34N 35°27' E 139°40'0 0.3
2017-Feb-15 03:33N 35°27' E 139°40'0 0.0
2017-Feb-15 02:33N 35°27' E 139°40'0 0.0
2017-Feb-15 01:33N 35°27' E 139°40'0 0.0
2017-Feb-15 00:33N 35°27' E 139°40'3 2.9
2017-Feb-14 23:33N 35°27' E 139°43'1 0.6
2017-Feb-14 22:33N 35°27' E 139°42'1 0.7
2017-Feb-14 21:33N 35°26' E 139°42'2 2.4
2017-Feb-14 20:33N 35°27' E 139°40'0 0.0
2017-Feb-14 07:33N 35°27' E 139°40'0 0.0
2017-Feb-14 06:33N 35°27' E 139°40'  

Dump ship's entire track history